sensor_id;sensor_type;location;lat;lon;timestamp;temperature;humidity
52139;DHT22;38131;53.256;6.460;2022-10-26T09:18:57;13.00;99.90
52139;DHT22;38131;53.256;6.460;2022-10-26T16:53:48;14.90;99.90
52139;DHT22;38131;53.256;6.460;2022-10-26T16:56:24;15.50;99.90
52139;DHT22;38131;53.256;6.460;2022-10-26T17:02:33;15.50;99.90
52139;DHT22;38131;53.256;6.460;2022-10-26T17:12:03;15.40;99.90
52139;DHT22;38131;53.256;6.460;2022-10-26T17:15:11;15.40;99.90
52139;DHT22;38131;53.256;6.460;2022-10-26T17:17:40;15.30;99.90
52139;DHT22;38131;53.256;6.460;2022-10-26T17:20:32;15.30;99.90
52139;DHT22;38131;53.256;6.460;2022-10-26T17:26:39;15.10;99.90
52139;DHT22;38131;53.256;6.460;2022-10-26T17:29:34;15.20;99.90
52139;DHT22;38131;53.256;6.460;2022-10-26T17:32:12;15.20;99.90
52139;DHT22;38131;53.256;6.460;2022-10-26T17:35:25;15.20;99.90
52139;DHT22;38131;53.256;6.460;2022-10-26T17:38:14;15.10;99.90
52139;DHT22;38131;53.256;6.460;2022-10-26T17:41:12;15.10;99.90
52139;DHT22;38131;53.256;6.460;2022-10-26T17:44:08;15.10;99.90
52139;DHT22;38131;53.256;6.460;2022-10-26T17:51:19;15.00;99.90
52139;DHT22;38131;53.256;6.460;2022-10-26T18:05:03;14.90;99.90
52139;DHT22;38131;53.256;6.460;2022-10-26T18:07:56;14.90;99.90
52139;DHT22;38131;53.256;6.460;2022-10-26T18:10:57;14.90;99.90
52139;DHT22;38131;53.256;6.460;2022-10-26T18:13:26;14.90;99.90
52139;DHT22;38131;53.256;6.460;2022-10-26T18:20:01;14.90;99.90
52139;DHT22;38131;53.256;6.460;2022-10-26T18:26:48;14.80;99.90
52139;DHT22;38131;53.256;6.460;2022-10-26T18:29:52;14.80;99.90
52139;DHT22;38131;53.256;6.460;2022-10-26T18:32:24;14.70;99.90
52139;DHT22;38131;53.256;6.460;2022-10-26T18:35:33;14.70;99.90
52139;DHT22;38131;53.256;6.460;2022-10-26T18:37:59;14.70;99.90
52139;DHT22;38131;53.256;6.460;2022-10-26T18:40:26;14.70;99.90
52139;DHT22;38131;53.256;6.460;2022-10-26T18:46:11;14.40;99.90
52139;DHT22;38131;53.256;6.460;2022-10-26T18:49:09;14.70;99.90
52139;DHT22;38131;53.256;6.460;2022-10-26T18:52:05;14.70;99.90
52139;DHT22;38131;53.256;6.460;2022-10-26T18:54:39;14.70;99.90
52139;DHT22;38131;53.256;6.460;2022-10-26T18:57:09;14.60;99.90
52139;DHT22;38131;53.256;6.460;2022-10-26T18:59:47;14.60;99.90
52139;DHT22;38131;53.256;6.460;2022-10-26T19:02:16;14.70;99.90
52139;DHT22;38131;53.256;6.460;2022-10-26T19:05:00;14.70;99.90
52139;DHT22;38131;53.256;6.460;2022-10-26T19:07:33;14.70;99.90
52139;DHT22;38131;53.256;6.460;2022-10-26T19:10:18;14.60;99.90
52139;DHT22;38131;53.256;6.460;2022-10-26T19:12:50;14.60;99.90
52139;DHT22;38131;53.256;6.460;2022-10-26T19:16:09;14.60;99.90
52139;DHT22;38131;53.256;6.460;2022-10-26T19:40:11;14.60;99.90
52139;DHT22;38131;53.256;6.460;2022-10-26T20:11:26;14.50;99.90
52139;DHT22;38131;53.256;6.460;2022-10-26T20:13:52;14.40;99.90
52139;DHT22;38131;53.256;6.460;2022-10-26T20:16:28;14.40;99.90
52139;DHT22;38131;53.256;6.460;2022-10-26T20:18:54;14.40;99.90
52139;DHT22;38131;53.256;6.460;2022-10-26T20:21:26;14.40;99.90
52139;DHT22;38131;53.256;6.460;2022-10-26T20:23:59;14.40;99.90
52139;DHT22;38131;53.256;6.460;2022-10-26T20:26:28;14.40;99.90
52139;DHT22;38131;53.256;6.460;2022-10-26T20:28:54;14.40;99.90
52139;DHT22;38131;53.256;6.460;2022-10-26T20:31:23;14.40;99.90
52139;DHT22;38131;53.256;6.460;2022-10-26T20:33:56;13.50;99.90
52139;DHT22;38131;53.256;6.460;2022-10-26T20:36:32;14.30;99.90
52139;DHT22;38131;53.256;6.460;2022-10-26T20:39:00;14.30;99.90
52139;DHT22;38131;53.256;6.460;2022-10-26T20:41:44;14.30;99.90
52139;DHT22;38131;53.256;6.460;2022-10-26T20:44:43;14.20;99.90
52139;DHT22;38131;53.256;6.460;2022-10-26T20:47:47;14.20;99.90
52139;DHT22;38131;53.256;6.460;2022-10-26T20:50:14;14.20;99.90
52139;DHT22;38131;53.256;6.460;2022-10-26T20:53:17;14.20;99.90
52139;DHT22;38131;53.256;6.460;2022-10-26T20:55:57;14.20;99.90
52139;DHT22;38131;53.256;6.460;2022-10-26T20:58:57;14.20;99.90
52139;DHT22;38131;53.256;6.460;2022-10-26T21:01:33;14.20;99.90
52139;DHT22;38131;53.256;6.460;2022-10-26T21:04:31;14.10;99.90
52139;DHT22;38131;53.256;6.460;2022-10-26T21:07:30;14.10;99.90
52139;DHT22;38131;53.256;6.460;2022-10-26T21:10:10;14.10;99.90
52139;DHT22;38131;53.256;6.460;2022-10-26T21:12:38;13.60;99.90
52139;DHT22;38131;53.256;6.460;2022-10-26T21:15:14;14.00;99.90
52139;DHT22;38131;53.256;6.460;2022-10-26T21:17:43;14.00;99.90
52139;DHT22;38131;53.256;6.460;2022-10-26T21:20:16;13.30;99.90
52139;DHT22;38131;53.256;6.460;2022-10-26T21:22:42;14.00;99.90
52139;DHT22;38131;53.256;6.460;2022-10-26T21:25:18;13.90;99.90
52139;DHT22;38131;53.256;6.460;2022-10-26T21:27:52;13.90;99.90
52139;DHT22;38131;53.256;6.460;2022-10-26T21:30:24;13.90;99.90
52139;DHT22;38131;53.256;6.460;2022-10-26T21:36:03;13.90;99.90
52139;DHT22;38131;53.256;6.460;2022-10-26T21:38:35;13.80;99.90
52139;DHT22;38131;53.256;6.460;2022-10-26T21:41:13;13.80;99.90
52139;DHT22;38131;53.256;6.460;2022-10-26T21:43:40;13.20;99.90
52139;DHT22;38131;53.256;6.460;2022-10-26T21:46:15;13.70;99.90
52139;DHT22;38131;53.256;6.460;2022-10-26T21:48:47;14.50;99.90
52139;DHT22;38131;53.256;6.460;2022-10-26T21:51:22;13.70;99.90
52139;DHT22;38131;53.256;6.460;2022-10-26T21:53:54;13.70;99.90
52139;DHT22;38131;53.256;6.460;2022-10-26T21:56:27;13.70;99.90
52139;DHT22;38131;53.256;6.460;2022-10-26T21:58:58;13.70;99.90
52139;DHT22;38131;53.256;6.460;2022-10-26T22:01:26;13.70;99.90
52139;DHT22;38131;53.256;6.460;2022-10-26T22:03:57;13.90;99.90
52139;DHT22;38131;53.256;6.460;2022-10-26T22:06:23;13.60;99.90
52139;DHT22;38131;53.256;6.460;2022-10-26T22:08:54;13.60;99.90
52139;DHT22;38131;53.256;6.460;2022-10-26T22:11:26;14.70;99.90
52139;DHT22;38131;53.256;6.460;2022-10-26T22:14:01;12.80;99.90
52139;DHT22;38131;53.256;6.460;2022-10-26T22:16:36;13.60;99.90
52139;DHT22;38131;53.256;6.460;2022-10-26T22:19:07;13.50;99.90
52139;DHT22;38131;53.256;6.460;2022-10-26T22:21:41;13.50;99.90
52139;DHT22;38131;53.256;6.460;2022-10-26T22:24:17;13.50;99.90
52139;DHT22;38131;53.256;6.460;2022-10-26T22:26:43;13.50;99.90
52139;DHT22;38131;53.256;6.460;2022-10-26T22:29:23;13.50;99.90
52139;DHT22;38131;53.256;6.460;2022-10-26T22:31:53;13.40;99.90
52139;DHT22;38131;53.256;6.460;2022-10-26T22:34:26;13.40;99.90
52139;DHT22;38131;53.256;6.460;2022-10-26T22:36:55;13.40;99.90
52139;DHT22;38131;53.256;6.460;2022-10-26T22:39:22;13.40;99.90
52139;DHT22;38131;53.256;6.460;2022-10-26T22:41:50;13.40;99.90
52139;DHT22;38131;53.256;6.460;2022-10-26T22:46:46;13.40;99.90
52139;DHT22;38131;53.256;6.460;2022-10-26T22:49:15;14.50;99.90
52139;DHT22;38131;53.256;6.460;2022-10-26T22:51:41;12.70;99.90
52139;DHT22;38131;53.256;6.460;2022-10-26T22:54:11;13.30;99.90
52139;DHT22;38131;53.256;6.460;2022-10-26T22:56:44;13.30;99.90
52139;DHT22;38131;53.256;6.460;2022-10-26T22:59:14;13.30;99.90
52139;DHT22;38131;53.256;6.460;2022-10-26T23:01:42;13.70;99.90
52139;DHT22;38131;53.256;6.460;2022-10-26T23:04:22;13.30;99.90
52139;DHT22;38131;53.256;6.460;2022-10-26T23:06:48;13.30;99.90
52139;DHT22;38131;53.256;6.460;2022-10-26T23:09:21;13.30;99.90
52139;DHT22;38131;53.256;6.460;2022-10-26T23:11:47;13.20;99.90
52139;DHT22;38131;53.256;6.460;2022-10-26T23:14:15;13.30;99.90
52139;DHT22;38131;53.256;6.460;2022-10-26T23:16:41;13.30;99.90
52139;DHT22;38131;53.256;6.460;2022-10-26T23:19:07;13.30;99.90
52139;DHT22;38131;53.256;6.460;2022-10-26T23:21:35;13.60;99.90
52139;DHT22;38131;53.256;6.460;2022-10-26T23:24:02;13.20;99.90
52139;DHT22;38131;53.256;6.460;2022-10-26T23:26:41;13.30;99.90
52139;DHT22;38131;53.256;6.460;2022-10-26T23:29:25;13.20;99.90
52139;DHT22;38131;53.256;6.460;2022-10-26T23:31:51;13.20;99.90
52139;DHT22;38131;53.256;6.460;2022-10-26T23:34:20;13.20;99.90
52139;DHT22;38131;53.256;6.460;2022-10-26T23:36:48;12.80;99.90
52139;DHT22;38131;53.256;6.460;2022-10-26T23:39:23;13.60;99.90
52139;DHT22;38131;53.256;6.460;2022-10-26T23:41:52;12.50;99.90
52139;DHT22;38131;53.256;6.460;2022-10-26T23:44:19;13.10;99.90
52139;DHT22;38131;53.256;6.460;2022-10-26T23:46:52;13.10;99.90
52139;DHT22;38131;53.256;6.460;2022-10-26T23:49:18;13.00;99.90
52139;DHT22;38131;53.256;6.460;2022-10-26T23:51:44;13.00;99.90
52139;DHT22;38131;53.256;6.460;2022-10-26T23:54:18;12.90;99.90
52139;DHT22;38131;53.256;6.460;2022-10-26T23:56:44;12.90;99.90
52139;DHT22;38131;53.256;6.460;2022-10-26T23:59:15;13.20;99.90
